createdAt,value
2023-03-06T00:00:52.784Z,7.65
2023-03-06T00:03:20.794Z,8.43
2023-03-06T00:05:47.640Z,7.65
2023-03-06T00:08:14.367Z,7.30
2023-03-06T00:10:41.191Z,7.60
2023-03-06T00:13:11.818Z,7.07
2023-03-06T00:15:38.524Z,7.95
2023-03-06T00:18:06.791Z,7.78
2023-03-06T00:20:34.807Z,6.65
2023-03-06T00:23:01.921Z,8.05
2023-03-06T00:25:28.602Z,7.18
2023-03-06T00:27:55.359Z,7.30
2023-03-06T00:30:24.692Z,7.47
2023-03-06T00:32:53.483Z,6.03
2023-03-06T00:35:20.748Z,6.38
2023-03-06T00:37:47.926Z,7.10
2023-03-06T00:40:17.056Z,6.63
2023-03-06T00:42:44.113Z,6.70
2023-03-06T00:45:12.110Z,6.90
2023-03-06T00:47:40.273Z,6.25
2023-03-06T00:50:08.374Z,6.07
2023-03-06T00:52:35.270Z,6.20
2023-03-06T00:55:02.245Z,6.10
2023-03-06T00:57:28.960Z,6.35
2023-03-06T00:59:57.489Z,5.88
2023-03-06T01:02:24.459Z,5.75
2023-03-06T01:04:53.718Z,6.80
2023-03-06T01:07:20.417Z,6.30
2023-03-06T01:09:47.247Z,6.28
2023-03-06T01:12:14.801Z,6.00
2023-03-06T01:14:41.570Z,5.65
2023-03-06T01:17:09.849Z,5.68
2023-03-06T01:19:36.646Z,6.80
2023-03-06T01:22:03.362Z,5.15
2023-03-06T01:24:31.687Z,6.00
2023-03-06T01:26:58.669Z,5.70
2023-03-06T01:29:26.589Z,5.93
2023-03-06T01:31:53.441Z,5.65
2023-03-06T01:34:20.336Z,6.32
2023-03-06T01:36:48.319Z,5.30
2023-03-06T01:39:15.350Z,4.82
2023-03-06T01:41:42.193Z,5.57
2023-03-06T01:44:11.029Z,5.70
2023-03-06T01:46:43.146Z,5.35
2023-03-06T01:49:16.435Z,6.03
2023-03-06T01:51:49.290Z,5.80
2023-03-06T01:54:22.332Z,6.10
2023-03-06T01:56:52.827Z,5.05
2023-03-06T01:59:21.415Z,5.47
2023-03-06T02:01:49.182Z,6.28
2023-03-06T02:04:17.892Z,5.72
2023-03-06T02:06:47.140Z,5.05
2023-03-06T02:09:14.562Z,6.03
2023-03-06T02:11:45.437Z,5.30
2023-03-06T02:14:16.305Z,5.22
2023-03-06T02:16:44.527Z,5.53
2023-03-06T02:19:33.338Z,6.18
2023-03-06T02:22:00.181Z,5.78
2023-03-06T02:24:34.832Z,6.50
2023-03-06T02:27:05.396Z,5.53
2023-03-06T02:29:33.482Z,6.45
2023-03-06T02:32:02.942Z,5.25
2023-03-06T02:34:29.656Z,5.43
2023-03-06T02:37:02.870Z,5.35
2023-03-06T02:39:33.550Z,5.82
2023-03-06T02:42:00.444Z,5.23
2023-03-06T02:44:32.038Z,5.47
2023-03-06T02:46:59.024Z,5.50
2023-03-06T02:49:26.604Z,5.85
2023-03-06T02:51:53.551Z,5.32
2023-03-06T02:54:20.718Z,5.28
2023-03-06T02:56:47.908Z,5.50
2023-03-06T02:59:14.599Z,4.68
2023-03-06T03:01:41.494Z,6.65
2023-03-06T03:04:08.980Z,5.65
2023-03-06T03:06:37.107Z,6.72
2023-03-06T03:09:04.169Z,5.22
2023-03-06T03:11:30.914Z,5.47
2023-03-06T03:13:57.632Z,6.07
2023-03-06T03:16:27.175Z,6.00
2023-03-06T03:18:57.769Z,5.65
2023-03-06T03:21:25.500Z,6.03
2023-03-06T03:23:54.449Z,5.65
2023-03-06T03:26:22.133Z,6.13
2023-03-06T03:29:10.652Z,6.22
2023-03-06T03:31:37.547Z,5.82
2023-03-06T03:34:04.433Z,5.30
2023-03-06T03:36:35.038Z,6.40
2023-03-06T03:39:03.538Z,5.72
2023-03-06T03:41:30.402Z,5.28
2023-03-06T03:43:57.081Z,6.43
2023-03-06T03:46:24.827Z,5.75
2023-03-06T03:48:53.173Z,6.15
2023-03-06T03:51:20.825Z,5.97
2023-03-06T03:53:51.821Z,6.40
2023-03-06T03:56:22.612Z,6.55
2023-03-06T03:58:56.778Z,6.68
2023-03-06T04:01:27.276Z,6.65
2023-03-06T04:03:53.983Z,5.57
2023-03-06T04:06:20.786Z,6.25
2023-03-06T04:08:48.061Z,6.00
2023-03-06T04:11:15.613Z,5.93
2023-03-06T04:13:43.099Z,6.53
2023-03-06T04:16:09.846Z,6.53
2023-03-06T04:18:38.259Z,5.85
2023-03-06T04:21:06.482Z,7.22
2023-03-06T04:23:33.658Z,5.70
2023-03-06T04:26:00.569Z,6.30
2023-03-06T04:28:28.350Z,5.90
2023-03-06T04:30:55.533Z,7.22
2023-03-06T04:33:23.140Z,6.47
2023-03-06T04:35:50.532Z,6.05
2023-03-06T04:38:22.473Z,6.30
2023-03-06T04:40:49.719Z,5.68
2023-03-06T04:43:17.171Z,6.93
2023-03-06T04:45:43.972Z,6.35
2023-03-06T04:48:14.389Z,7.13
2023-03-06T04:50:41.087Z,7.07
2023-03-06T04:53:08.641Z,7.15
2023-03-06T04:55:35.431Z,6.30
2023-03-06T04:58:02.264Z,6.55
2023-03-06T05:00:31.407Z,6.68
2023-03-06T05:03:00.782Z,7.05
2023-03-06T05:05:28.822Z,6.10
2023-03-06T05:07:55.986Z,6.05
2023-03-06T05:10:22.770Z,6.80
2023-03-06T05:12:49.684Z,6.07
2023-03-06T05:15:16.963Z,7.22
2023-03-06T05:17:43.841Z,6.18
2023-03-06T05:20:12.499Z,6.40
2023-03-06T05:22:39.580Z,6.53
2023-03-06T05:25:07.436Z,6.47
2023-03-06T05:27:34.453Z,7.30
2023-03-06T05:30:01.304Z,6.97
2023-03-06T05:32:28.504Z,6.63
2023-03-06T05:34:55.803Z,6.20
2023-03-06T05:37:25.473Z,6.88
2023-03-06T05:39:52.240Z,7.60
2023-03-06T05:42:18.947Z,5.65
2023-03-06T05:44:45.674Z,6.55
2023-03-06T05:47:12.522Z,6.20
2023-03-06T05:49:39.689Z,6.88
2023-03-06T05:52:07.539Z,7.38
2023-03-06T05:54:36.013Z,5.90
2023-03-06T05:57:04.320Z,6.55
2023-03-06T05:59:33.036Z,7.03
2023-03-06T06:02:01.328Z,5.72
2023-03-06T06:04:28.654Z,6.63
2023-03-06T06:06:57.308Z,6.72
2023-03-06T06:09:25.003Z,7.38
2023-03-06T06:12:00.212Z,6.75
2023-03-06T06:14:27.649Z,7.30
2023-03-06T06:16:55.182Z,5.90
2023-03-06T06:19:22.657Z,6.47
2023-03-06T06:21:52.399Z,7.13
2023-03-06T06:24:22.365Z,5.97
2023-03-06T06:26:54.532Z,7.10
2023-03-06T06:29:22.419Z,6.80
2023-03-06T06:31:49.606Z,6.38
2023-03-06T06:34:16.539Z,6.45
2023-03-06T06:36:43.478Z,7.80
2023-03-06T06:39:13.437Z,5.90
2023-03-06T06:41:56.827Z,6.68
2023-03-06T06:44:26.440Z,5.65
2023-03-06T06:49:40.129Z,7.00
2023-03-06T06:52:07.531Z,6.05
2023-03-06T06:54:34.961Z,6.22
2023-03-06T06:57:01.911Z,6.32
2023-03-06T06:59:28.612Z,5.72
2023-03-06T07:01:55.796Z,5.55
2023-03-06T07:04:22.602Z,6.20
2023-03-06T07:06:49.323Z,6.80
2023-03-06T07:09:16.328Z,6.25
2023-03-06T07:11:43.135Z,7.28
2023-03-06T07:14:09.869Z,5.68
2023-03-06T07:16:36.593Z,8.98
2023-03-06T07:19:03.318Z,7.30
2023-03-06T07:21:30.035Z,7.63
2023-03-06T07:23:57.539Z,6.72
2023-03-06T07:26:28.458Z,6.32
2023-03-06T07:28:55.485Z,6.45
2023-03-06T07:31:25.158Z,7.57
2023-03-06T07:33:53.092Z,7.18
2023-03-06T07:36:20.553Z,6.40
2023-03-06T07:38:47.408Z,6.88
2023-03-06T07:41:16.349Z,7.20
2023-03-06T07:43:45.496Z,5.97
2023-03-06T07:46:14.243Z,6.45
2023-03-06T07:48:42.088Z,6.20
2023-03-06T07:51:14.514Z,6.55
2023-03-06T07:53:41.266Z,6.35
2023-03-06T07:56:09.093Z,7.50
2023-03-06T07:58:38.137Z,6.95
2023-03-06T08:01:13.701Z,7.55
2023-03-06T08:03:40.795Z,6.95
2023-03-06T08:06:22.995Z,6.38
2023-03-06T08:08:52.618Z,6.53
2023-03-06T08:11:21.820Z,6.63
2023-03-06T08:13:49.090Z,6.75
2023-03-06T08:16:17.362Z,6.75
2023-03-06T08:18:46.169Z,7.03
2023-03-06T08:21:18.930Z,6.93
2023-03-06T08:23:45.731Z,7.22
2023-03-06T08:26:15.099Z,6.88
2023-03-06T08:28:42.346Z,8.27
2023-03-06T08:31:20.966Z,7.63
2023-03-06T08:33:47.840Z,8.52
2023-03-06T08:36:14.496Z,8.68
2023-03-06T08:38:41.381Z,9.15
2023-03-06T08:41:08.147Z,9.35
2023-03-06T08:43:35.814Z,8.85
2023-03-06T08:46:02.985Z,8.43
2023-03-06T08:48:29.795Z,8.35
2023-03-06T08:50:56.460Z,7.57
2023-03-06T08:53:40.485Z,7.60
2023-03-06T08:56:19.699Z,8.27
2023-03-06T08:58:47.153Z,7.82
2023-03-06T09:01:19.665Z,8.70
2023-03-06T09:03:46.781Z,7.75
2023-03-06T09:06:14.117Z,7.72
2023-03-06T09:08:44.766Z,8.68
2023-03-06T09:11:13.858Z,8.43
2023-03-06T09:13:41.518Z,8.00
2023-03-06T09:16:09.219Z,6.95
2023-03-06T09:18:36.345Z,8.50
2023-03-06T09:21:04.042Z,8.30
2023-03-06T09:23:30.953Z,6.32
2023-03-06T09:26:00.340Z,7.47
2023-03-06T09:28:27.401Z,6.75
2023-03-06T09:30:55.206Z,6.53
2023-03-06T09:33:22.425Z,5.82
2023-03-06T09:35:54.521Z,6.80
2023-03-06T09:38:24.100Z,6.22
2023-03-06T09:41:26.228Z,5.72
2023-03-06T09:44:05.860Z,5.55
2023-03-06T09:46:51.918Z,5.80
2023-03-06T09:49:29.294Z,6.93
2023-03-06T09:52:20.809Z,6.35
2023-03-06T09:54:57.021Z,6.50
2023-03-06T09:57:32.111Z,5.75
2023-03-06T10:00:07.251Z,5.85
2023-03-06T10:02:50.089Z,5.90
2023-03-06T10:05:23.122Z,6.47
2023-03-06T10:08:00.700Z,5.82
2023-03-06T10:10:35.701Z,5.68
2023-03-06T10:13:27.943Z,5.50
2023-03-06T10:16:18.933Z,6.80
2023-03-06T10:18:45.729Z,6.00
2023-03-06T10:21:37.479Z,6.28
2023-03-06T10:24:07.124Z,6.07
2023-03-06T10:26:42.316Z,5.40
2023-03-06T10:29:11.952Z,5.75
2023-03-06T10:31:49.691Z,6.75
2023-03-06T10:34:27.311Z,6.30
2023-03-06T10:36:53.973Z,4.85
2023-03-06T10:39:22.862Z,6.13
2023-03-06T10:41:50.365Z,6.75
2023-03-06T10:44:20.184Z,7.07
2023-03-06T10:46:49.516Z,5.57
2023-03-06T10:49:34.683Z,6.55
2023-03-06T10:52:09.311Z,5.93
2023-03-06T10:54:38.880Z,5.63
2023-03-06T10:57:19.269Z,5.07
2023-03-06T10:59:55.879Z,5.13
2023-03-06T11:02:32.007Z,6.45
2023-03-06T11:05:01.017Z,5.78
2023-03-06T11:07:30.964Z,5.82
2023-03-06T11:09:57.609Z,6.38
2023-03-06T11:12:30.638Z,5.82
2023-03-06T11:15:14.101Z,6.32
2023-03-06T11:17:49.107Z,6.88
2023-03-06T11:20:22.085Z,6.78
2023-03-06T11:23:13.230Z,6.03
2023-03-06T11:25:54.626Z,6.55
2023-03-06T11:28:26.136Z,5.97
2023-03-06T11:30:59.530Z,6.30
2023-03-06T11:33:39.796Z,5.97
2023-03-06T11:36:25.349Z,5.80
2023-03-06T11:38:54.599Z,6.35
2023-03-06T11:41:38.400Z,5.95
2023-03-06T11:44:40.749Z,6.20
2023-03-06T11:47:19.083Z,5.72
2023-03-06T11:50:00.230Z,6.35
2023-03-06T11:52:48.186Z,5.65
2023-03-06T11:55:35.547Z,5.78
2023-03-06T11:58:42.719Z,5.40
2023-03-06T12:01:32.350Z,6.28
2023-03-06T12:04:33.250Z,6.00
2023-03-06T12:07:09.420Z,6.38
2023-03-06T12:09:58.911Z,5.88
2023-03-06T12:13:00.211Z,5.93
2023-03-06T12:15:44.604Z,5.57
2023-03-06T12:18:34.015Z,6.03
2023-03-06T12:21:13.864Z,5.68
2023-03-06T12:24:11.617Z,5.80
2023-03-06T12:27:13.713Z,6.07
2023-03-06T12:30:06.340Z,5.32
2023-03-06T12:33:09.097Z,5.30
2023-03-06T12:35:53.798Z,5.00
2023-03-06T12:38:49.080Z,6.03
2023-03-06T12:41:57.651Z,5.80
2023-03-06T12:44:49.458Z,5.10
2023-03-06T12:47:20.199Z,4.80
2023-03-06T12:50:01.468Z,6.00
2023-03-06T12:52:31.424Z,4.95
2023-03-06T12:55:06.570Z,5.90
2023-03-06T12:57:33.718Z,5.63
2023-03-06T13:00:00.563Z,6.05
2023-03-06T13:02:54.811Z,4.95
2023-03-06T13:05:55.079Z,5.00
2023-03-06T13:09:09.207Z,5.50
2023-03-06T13:12:09.033Z,5.25
2023-03-06T13:14:42.335Z,5.18
2023-03-06T13:17:28.405Z,5.10
2023-03-06T13:20:35.511Z,5.60
2023-03-06T13:23:29.749Z,5.63
2023-03-06T13:26:04.796Z,4.47
2023-03-06T13:28:45.097Z,4.88
2023-03-06T13:31:36.477Z,4.82
2023-03-06T13:34:23.274Z,5.13
2023-03-06T13:36:50.181Z,4.30
2023-03-06T13:39:17.293Z,4.53
2023-03-06T13:41:57.677Z,5.03
2023-03-06T13:44:24.577Z,5.80
2023-03-06T13:47:05.014Z,5.35
2023-03-06T13:49:33.628Z,5.50
2023-03-06T13:52:21.009Z,5.05
2023-03-06T13:55:14.874Z,4.43
2023-03-06T13:58:13.803Z,4.80
2023-03-06T14:00:59.373Z,4.85
2023-03-06T14:03:58.453Z,5.10
2023-03-06T14:06:42.332Z,5.55
2023-03-06T14:09:34.420Z,4.63
2023-03-06T14:12:07.234Z,4.70
2023-03-06T14:14:43.869Z,4.18
2023-03-06T14:17:31.160Z,5.00
2023-03-06T14:20:17.757Z,4.93
2023-03-06T14:22:44.597Z,4.72
2023-03-06T14:25:26.768Z,5.05
2023-03-06T14:27:58.168Z,4.43
2023-03-06T14:30:27.278Z,5.30
2023-03-06T14:32:55.213Z,5.25
2023-03-06T14:35:26.231Z,4.20
2023-03-06T14:37:56.555Z,4.45
2023-03-06T14:40:30.390Z,4.60
2023-03-06T14:43:21.212Z,4.68
2023-03-06T14:45:59.807Z,5.78
2023-03-06T14:48:39.133Z,5.93
2023-03-06T14:51:11.959Z,5.43
2023-03-06T14:53:38.995Z,5.00
2023-03-06T14:56:07.141Z,6.82
2023-03-06T14:58:50.926Z,5.90
2023-03-06T15:01:34.644Z,5.57
2023-03-06T15:04:01.921Z,5.75
2023-03-06T15:06:40.073Z,5.00
2023-03-06T15:09:26.826Z,5.43
2023-03-06T15:12:24.599Z,6.53
2023-03-06T15:15:24.249Z,4.95
2023-03-06T15:17:51.011Z,5.25
2023-03-06T15:20:38.194Z,6.32
2023-03-06T15:23:20.704Z,5.90
2023-03-06T15:25:59.953Z,6.53
2023-03-06T15:28:38.931Z,6.35
2023-03-06T15:31:21.588Z,6.60
2023-03-06T15:34:25.213Z,5.88
2023-03-06T15:36:57.546Z,5.57
2023-03-06T15:39:41.958Z,5.75
2023-03-06T15:42:20.633Z,5.75
2023-03-06T15:44:51.088Z,5.72
2023-03-06T15:47:19.175Z,6.07
2023-03-06T15:49:46.507Z,5.55
2023-03-06T15:52:15.099Z,5.40
2023-03-06T15:54:42.921Z,5.72
2023-03-06T15:57:24.389Z,5.75
2023-03-06T15:59:52.359Z,5.85
2023-03-06T16:02:24.896Z,5.90
2023-03-06T16:04:53.027Z,5.32
2023-03-06T16:07:20.603Z,5.68
2023-03-06T16:09:47.501Z,5.72
2023-03-06T16:12:17.459Z,6.43
2023-03-06T16:14:45.923Z,6.05
2023-03-06T16:17:13.199Z,5.78
2023-03-06T16:19:40.287Z,6.00
2023-03-06T16:22:07.184Z,5.72
2023-03-06T16:24:33.983Z,5.95
2023-03-06T16:27:02.280Z,5.90
2023-03-06T16:29:30.050Z,5.45
2023-03-06T16:31:58.808Z,4.97
2023-03-06T16:34:25.797Z,6.47
2023-03-06T16:36:52.639Z,5.60
2023-03-06T16:39:22.335Z,5.55
2023-03-06T16:41:50.129Z,5.85
2023-03-06T16:44:16.963Z,5.88
2023-03-06T16:46:46.122Z,5.65
2023-03-06T16:49:18.298Z,5.80
2023-03-06T16:51:45.661Z,6.78
2023-03-06T16:54:12.884Z,6.00
2023-03-06T16:56:39.778Z,5.88
2023-03-06T16:59:06.671Z,5.32
2023-03-06T17:01:33.950Z,5.97
2023-03-06T17:04:00.959Z,6.95
2023-03-06T17:06:28.322Z,6.40
2023-03-06T17:08:55.163Z,4.82
2023-03-06T17:11:21.898Z,4.88
2023-03-06T17:13:48.853Z,5.28
2023-03-06T17:16:16.620Z,5.85
2023-03-06T17:18:45.361Z,4.72
2023-03-06T17:21:15.726Z,4.53
2023-03-06T17:23:44.435Z,5.25
2023-03-06T17:26:20.628Z,4.40
2023-03-06T17:28:47.855Z,3.83
2023-03-06T17:31:21.121Z,4.35
2023-03-06T17:33:48.524Z,4.60
2023-03-06T17:36:16.347Z,4.32
2023-03-06T17:38:45.254Z,4.20
2023-03-06T17:41:13.167Z,4.30
2023-03-06T17:43:40.778Z,4.50
2023-03-06T17:46:13.731Z,4.50
2023-03-06T17:48:40.667Z,4.90
2023-03-06T17:51:11.764Z,4.40
2023-03-06T17:53:39.293Z,4.57
2023-03-06T17:56:08.730Z,4.10
2023-03-06T17:58:35.902Z,4.35
2023-03-06T18:01:18.254Z,4.18
2023-03-06T18:03:47.897Z,4.78
2023-03-06T18:06:16.613Z,4.55
2023-03-06T18:08:44.187Z,5.85
2023-03-06T18:11:13.355Z,5.28
2023-03-06T18:13:42.868Z,5.30
2023-03-06T18:16:12.163Z,4.57
2023-03-06T18:18:38.995Z,4.22
2023-03-06T18:21:10.922Z,4.28
2023-03-06T18:23:39.804Z,4.38
2023-03-06T18:26:21.562Z,5.03
2023-03-06T18:28:53.282Z,5.07
2023-03-06T18:34:03.400Z,5.18
2023-03-06T18:36:33.385Z,5.35
2023-03-06T18:39:03.574Z,4.85
2023-03-06T18:41:31.648Z,4.25
2023-03-06T18:44:00.399Z,5.38
2023-03-06T18:46:31.370Z,5.78
2023-03-06T18:48:58.228Z,5.93
2023-03-06T18:51:25.341Z,4.97
2023-03-06T18:53:52.188Z,5.15
2023-03-06T18:56:21.333Z,5.30
2023-03-06T18:58:50.272Z,4.65
2023-03-06T19:01:17.512Z,5.45
2023-03-06T19:03:44.528Z,5.10
2023-03-06T19:06:13.722Z,4.55
2023-03-06T19:08:41.398Z,4.45
2023-03-06T19:11:14.147Z,4.78
2023-03-06T19:13:41.077Z,5.18
2023-03-06T19:16:08.791Z,4.70
2023-03-06T19:18:35.956Z,4.30
2023-03-06T19:21:14.428Z,4.35
2023-03-06T19:23:42.323Z,4.95
2023-03-06T19:26:09.306Z,5.35
2023-03-06T19:28:38.367Z,5.57
2023-03-06T19:31:12.599Z,4.80
2023-03-06T19:33:40.611Z,4.80
2023-03-06T19:36:09.877Z,4.82
2023-03-06T19:38:36.804Z,4.28
2023-03-06T19:41:04.134Z,5.40
2023-03-06T19:43:31.199Z,5.07
2023-03-06T19:45:58.421Z,4.00
2023-03-06T19:48:25.567Z,5.28
2023-03-06T19:50:52.282Z,4.57
2023-03-06T19:53:19.140Z,5.00
2023-03-06T19:55:45.884Z,3.72
2023-03-06T19:58:12.656Z,4.70
2023-03-06T20:00:39.505Z,5.45
2023-03-06T20:03:06.303Z,5.80
2023-03-06T20:05:33.565Z,4.32
2023-03-06T20:08:00.465Z,5.45
2023-03-06T20:10:27.298Z,4.85
2023-03-06T20:12:54.100Z,4.32
2023-03-06T20:15:22.230Z,4.93
2023-03-06T20:17:49.117Z,5.15
2023-03-06T20:20:16.156Z,4.75
2023-03-06T20:22:43.465Z,4.85
2023-03-06T20:25:10.531Z,4.45
2023-03-06T20:27:37.532Z,5.38
2023-03-06T20:30:07.899Z,4.88
2023-03-06T20:32:34.905Z,5.28
2023-03-06T20:35:01.834Z,4.57
2023-03-06T20:37:28.619Z,4.60
2023-03-06T20:39:55.318Z,5.13
2023-03-06T20:42:22.256Z,4.70
2023-03-06T20:44:48.957Z,5.18
2023-03-06T20:47:15.835Z,5.15
2023-03-06T20:49:42.646Z,5.65
2023-03-06T20:52:09.687Z,5.03
2023-03-06T20:54:36.521Z,5.43
2023-03-06T20:57:03.325Z,5.82
2023-03-06T20:59:30.122Z,6.43
2023-03-06T21:01:56.879Z,6.50
2023-03-06T21:04:23.645Z,7.15
2023-03-06T21:06:53.508Z,6.40
2023-03-06T21:09:20.397Z,5.82
2023-03-06T21:11:47.573Z,7.28
2023-03-06T21:14:15.396Z,5.93
2023-03-06T21:16:42.813Z,6.47
2023-03-06T21:19:09.914Z,5.68
2023-03-06T21:21:36.654Z,7.25
2023-03-06T21:24:03.847Z,6.85
2023-03-06T21:26:33.709Z,7.38
2023-03-06T21:29:01.691Z,6.82
2023-03-06T21:31:29.357Z,6.22
2023-03-06T21:33:56.876Z,6.45
2023-03-06T21:36:23.674Z,6.47
2023-03-06T21:38:51.845Z,6.07
2023-03-06T21:41:24.095Z,6.38
2023-03-06T21:43:58.354Z,6.60
2023-03-06T21:46:26.059Z,6.20
2023-03-06T21:48:53.284Z,6.20
2023-03-06T21:51:21.250Z,6.13
2023-03-06T21:53:48.461Z,6.47
2023-03-06T21:56:18.079Z,6.85
2023-03-06T21:58:45.383Z,6.45
2023-03-06T22:01:15.715Z,6.60
2023-03-06T22:03:42.894Z,6.50
2023-03-06T22:06:12.766Z,7.07
2023-03-06T22:08:40.510Z,5.78
2023-03-06T22:11:14.368Z,6.80
2023-03-06T22:13:42.194Z,6.00
2023-03-06T22:16:09.701Z,7.30
2023-03-06T22:18:37.497Z,6.05
2023-03-06T22:21:09.336Z,6.10
2023-03-06T22:23:36.858Z,6.57
2023-03-06T22:26:05.943Z,6.85
2023-03-06T22:28:33.141Z,6.60
2023-03-06T22:31:19.750Z,6.15
2023-03-06T22:33:46.976Z,6.55
2023-03-06T22:36:15.489Z,6.03
2023-03-06T22:38:44.452Z,6.82
2023-03-06T22:41:16.409Z,6.68
2023-03-06T22:43:43.796Z,6.32
2023-03-06T22:46:13.579Z,6.10
2023-03-06T22:48:41.345Z,8.00
2023-03-06T22:51:11.339Z,6.68
2023-03-06T22:53:39.003Z,6.20
2023-03-06T22:56:09.647Z,6.28
2023-03-06T22:58:37.698Z,6.23
2023-03-06T23:01:19.276Z,6.55
2023-03-06T23:03:48.636Z,6.13
2023-03-06T23:06:20.106Z,6.78
2023-03-06T23:09:09.776Z,5.95
2023-03-06T23:11:54.933Z,6.13
2023-03-06T23:14:40.488Z,6.05
2023-03-06T23:17:25.595Z,5.80
2023-03-06T23:20:13.492Z,6.32
2023-03-06T23:22:58.718Z,5.75
2023-03-06T23:25:40.678Z,6.05
2023-03-06T23:28:07.843Z,6.15
2023-03-06T23:30:34.588Z,5.70
2023-03-06T23:33:01.356Z,5.97
2023-03-06T23:35:28.149Z,6.38
2023-03-06T23:37:54.994Z,6.50
2023-03-06T23:40:22.130Z,6.63
2023-03-06T23:42:48.864Z,7.07
2023-03-06T23:45:16.711Z,6.38
2023-03-06T23:47:43.432Z,7.47
2023-03-06T23:50:11.176Z,6.57
2023-03-06T23:52:38.733Z,8.25
2023-03-06T23:55:06.364Z,5.45
2023-03-06T23:57:33.512Z,6.53
